Time;durP1;ratioP1;P1;durP2;ratioP2;P2;SDS_P1;SDS_P2;PMS_P1;PMS_P2;Temp;Humidity;BMP_temperature;BMP_pressure;BME280_temperature;BME280_humidity;BME280_pressure;Samples;Min_cycle;Max_cycle;Signal;HPM_P1;HPM_P2
2021/09/30 00:01:55;;;;;;;15.23;6.20;;;;;;;;;;5073986;28;20023;-68
2021/09/30 00:04:21;;;;;;;11.75;5.15;;;;;;;;;;5082622;28;20051;-68
2021/09/30 00:06:46;;;;;;;13.95;5.13;;;;;;;;;;5094207;28;20032;-68
2021/09/30 00:09:12;;;;;;;21.52;5.53;;;;;;;;;;5093135;28;20529;-68
2021/09/30 00:11:44;;;;;;;18.48;5.32;;;;;;;;;;5066645;28;20017;-67
2021/09/30 00:14:15;;;;;;;11.43;5.28;;;;;;;;;;5072377;28;20388;-68
2021/09/30 00:17:00;;;;;;;15.57;5.28;;;;;;;;;;5094014;28;20098;-68
2021/09/30 00:54:26;;;;;;;16.67;5.60;;;;;;;;;;5074355;28;20111;-68
2021/09/30 02:59:12;;;;;;;13.07;5.35;;;;;;;;;;5081798;28;20116;-67
2021/09/30 03:01:40;;;;;;;15.57;5.53;;;;;;;;;;5076591;28;20384;-67
2021/09/30 03:04:07;;;;;;;15.20;5.63;;;;;;;;;;5058245;28;20099;-68
2021/09/30 03:06:32;;;;;;;19.52;5.88;;;;;;;;;;5068284;28;20024;-68
2021/09/30 03:09:00;;;;;;;14.75;5.15;;;;;;;;;;5063856;28;20035;-68
2021/09/30 03:11:28;;;;;;;15.13;6.60;;;;;;;;;;5085923;28;20119;-68
2021/09/30 03:13:56;;;;;;;14.85;5.78;;;;;;;;;;5063462;28;20025;-69
2021/09/30 03:16:46;;;;;;;11.98;5.90;;;;;;;;;;5050936;28;20032;-69
2021/09/30 03:24:40;;;;;;;10.85;5.30;;;;;;;;;;5062655;28;20070;-67
2021/09/30 03:27:07;;;;;;;18.55;5.38;;;;;;;;;;5054675;28;20037;-67
2021/09/30 03:29:32;;;;;;;11.52;5.15;;;;;;;;;;5065309;28;20033;-67
2021/09/30 03:32:00;;;;;;;12.63;5.05;;;;;;;;;;5054315;28;20035;-67
2021/09/30 03:34:25;;;;;;;13.68;6.07;;;;;;;;;;5077050;28;20515;-67
2021/09/30 03:36:51;;;;;;;12.20;5.43;;;;;;;;;;5075110;28;20024;-67
2021/09/30 03:39:23;;;;;;;12.60;5.35;;;;;;;;;;5084594;28;20024;-67
2021/09/30 03:41:50;;;;;;;12.00;5.53;;;;;;;;;;5074509;28;20488;-67
2021/09/30 03:44:15;;;;;;;18.45;5.57;;;;;;;;;;5074249;28;20506;-67
2021/09/30 03:46:43;;;;;;;18.80;6.00;;;;;;;;;;5047000;28;20135;-67
2021/09/30 03:49:12;;;;;;;13.05;5.50;;;;;;;;;;5073609;28;20028;-67
2021/09/30 03:59:19;;;;;;;16.52;6.70;;;;;;;;;;5074411;28;20036;-66
2021/09/30 04:01:58;;;;;;;15.30;6.25;;;;;;;;;;5037203;28;20127;-67
2021/09/30 04:04:26;;;;;;;13.48;5.88;;;;;;;;;;5070553;28;20075;-67
2021/09/30 04:06:56;;;;;;;14.40;5.43;;;;;;;;;;5075335;28;20024;-68
2021/09/30 04:09:27;;;;;;;16.73;5.70;;;;;;;;;;5087754;28;20104;-67
2021/09/30 04:11:54;;;;;;;16.08;6.15;;;;;;;;;;5053716;28;20029;-67
2021/09/30 04:14:20;;;;;;;17.73;6.30;;;;;;;;;;5059647;28;20457;-69
2021/09/30 04:16:47;;;;;;;11.38;5.63;;;;;;;;;;5077362;28;20040;-67
2021/09/30 04:19:15;;;;;;;15.65;6.40;;;;;;;;;;5073335;28;20024;-67
2021/09/30 04:21:41;;;;;;;13.55;6.40;;;;;;;;;;5071951;28;20028;-68
2021/09/30 04:24:06;;;;;;;14.50;5.70;;;;;;;;;;5075477;28;20031;-68
2021/09/30 04:26:32;;;;;;;17.85;6.70;;;;;;;;;;5091404;28;20103;-68
2021/09/30 04:28:57;;;;;;;19.40;6.60;;;;;;;;;;5072651;28;20056;-67
2021/09/30 04:31:23;;;;;;;18.17;6.68;;;;;;;;;;5073361;28;20030;-67
2021/09/30 04:33:50;;;;;;;15.80;6.10;;;;;;;;;;5069925;28;20025;-67
2021/09/30 04:36:15;;;;;;;11.40;5.60;;;;;;;;;;5053394;28;20025;-67
2021/09/30 04:38:41;;;;;;;10.00;5.53;;;;;;;;;;5064555;28;20024;-67
2021/09/30 04:41:06;;;;;;;12.57;6.10;;;;;;;;;;5071664;28;20022;-67
2021/09/30 04:43:32;;;;;;;13.32;6.22;;;;;;;;;;5072760;28;20029;-67
2021/09/30 04:45:57;;;;;;;12.57;5.55;;;;;;;;;;5054099;28;20021;-67
2021/09/30 04:48:23;;;;;;;11.43;6.00;;;;;;;;;;5053182;28;20548;-67
2021/09/30 04:50:48;;;;;;;22.55;6.55;;;;;;;;;;5058090;28;20041;-67
2021/09/30 04:53:14;;;;;;;13.02;6.30;;;;;;;;;;5066765;28;20028;-67
2021/09/30 04:55:39;;;;;;;16.08;6.85;;;;;;;;;;5082991;28;20031;-67
2021/09/30 04:58:05;;;;;;;17.67;6.85;;;;;;;;;;5092463;28;20051;-67
2021/09/30 05:00:30;;;;;;;13.18;6.65;;;;;;;;;;5083425;28;20375;-67
2021/09/30 05:02:55;;;;;;;19.25;6.65;;;;;;;;;;5080340;28;20465;-67
2021/09/30 05:05:21;;;;;;;15.48;6.55;;;;;;;;;;5067570;28;20020;-66
2021/09/30 05:07:47;;;;;;;12.77;6.93;;;;;;;;;;5071028;28;20016;-67
2021/09/30 05:10:17;;;;;;;13.30;6.38;;;;;;;;;;5071514;28;20073;-67
2021/09/30 05:12:43;;;;;;;13.85;6.10;;;;;;;;;;5072420;28;20035;-67
2021/09/30 05:15:09;;;;;;;14.27;6.30;;;;;;;;;;5073748;28;20032;-67
2021/09/30 05:17:35;;;;;;;13.50;6.03;;;;;;;;;;5065111;28;20032;-67
2021/09/30 05:20:00;;;;;;;12.60;6.68;;;;;;;;;;5065574;28;20027;-67
2021/09/30 05:22:26;;;;;;;12.48;6.43;;;;;;;;;;5058246;28;20029;-67
2021/09/30 05:24:51;;;;;;;16.75;7.03;;;;;;;;;;5072378;28;20063;-67
2021/09/30 05:27:18;;;;;;;12.65;6.03;;;;;;;;;;5075399;28;20016;-67
2021/09/30 05:29:43;;;;;;;13.15;6.35;;;;;;;;;;5071929;28;20021;-67
2021/09/30 05:32:09;;;;;;;14.45;6.75;;;;;;;;;;5066571;28;20391;-66
2021/09/30 05:34:34;;;;;;;15.18;6.55;;;;;;;;;;5076857;28;20095;-67
2021/09/30 05:37:00;;;;;;;16.73;6.95;;;;;;;;;;5090265;28;20015;-66
2021/09/30 05:39:25;;;;;;;15.45;6.55;;;;;;;;;;5054573;28;20037;-67
2021/09/30 05:41:53;;;;;;;14.65;7.97;;;;;;;;;;5059715;28;20354;-67
2021/09/30 05:44:21;;;;;;;12.77;6.55;;;;;;;;;;5063395;28;20181;-67
2021/09/30 05:46:52;;;;;;;17.67;7.20;;;;;;;;;;5069428;28;20067;-67
2021/09/30 05:49:18;;;;;;;13.60;6.93;;;;;;;;;;5072906;28;20032;-68
2021/09/30 05:51:44;;;;;;;15.23;6.80;;;;;;;;;;5085519;28;20440;-68
2021/09/30 05:54:09;;;;;;;18.30;6.57;;;;;;;;;;5079813;28;20379;-68
2021/09/30 05:56:36;;;;;;;12.60;6.70;;;;;;;;;;5083912;28;20029;-68
2021/09/30 05:59:02;;;;;;;13.10;7.38;;;;;;;;;;5071894;28;20028;-68
2021/09/30 06:14:52;;;;;;;12.10;7.53;;;;;;;;;;5061935;28;20432;-69
2021/09/30 06:17:19;;;;;;;16.70;7.30;;;;;;;;;;5051376;28;20028;-68
2021/09/30 06:19:44;;;;;;;14.90;7.18;;;;;;;;;;5060446;28;20462;-69
2021/09/30 06:22:10;;;;;;;12.93;7.30;;;;;;;;;;5072227;28;20104;-69
2021/09/30 06:24:37;;;;;;;10.98;6.80;;;;;;;;;;5067028;28;20020;-69
2021/09/30 06:27:03;;;;;;;13.70;7.32;;;;;;;;;;5071502;28;20034;-69
2021/09/30 06:29:30;;;;;;;12.50;7.15;;;;;;;;;;5055067;28;20075;-69
2021/09/30 06:31:55;;;;;;;16.45;7.05;;;;;;;;;;5071698;28;20432;-69
2021/09/30 06:34:20;;;;;;;14.55;7.82;;;;;;;;;;5074687;28;20107;-69
2021/09/30 06:36:46;;;;;;;16.55;7.55;;;;;;;;;;5073334;28;20482;-69
2021/09/30 06:39:12;;;;;;;25.35;8.57;;;;;;;;;;5086465;28;20625;-69
2021/09/30 06:41:39;;;;;;;15.75;7.93;;;;;;;;;;5073371;28;20035;-69
2021/09/30 06:44:04;;;;;;;17.77;8.18;;;;;;;;;;5071576;28;20468;-69
2021/09/30 06:46:30;;;;;;;13.38;8.25;;;;;;;;;;5074597;28;20028;-69
2021/09/30 06:48:55;;;;;;;17.23;8.25;;;;;;;;;;5070815;28;20486;-69
2021/09/30 06:51:21;;;;;;;18.23;9.52;;;;;;;;;;5070976;28;20024;-69
2021/09/30 06:53:46;;;;;;;13.27;8.27;;;;;;;;;;5070780;28;20024;-69
2021/09/30 06:56:15;;;;;;;17.90;8.55;;;;;;;;;;5073747;28;20032;-69
2021/09/30 06:58:45;;;;;;;12.93;8.20;;;;;;;;;;5070771;28;20028;-69
2021/09/30 07:01:11;;;;;;;22.83;8.77;;;;;;;;;;5070675;28;20305;-70
2021/09/30 07:03:37;;;;;;;16.70;8.57;;;;;;;;;;5070358;28;20041;-69
2021/09/30 07:06:04;;;;;;;18.58;8.35;;;;;;;;;;5074854;28;20035;-69
2021/09/30 07:08:30;;;;;;;16.15;8.35;;;;;;;;;;5072898;28;20074;-69
2021/09/30 07:10:55;;;;;;;22.52;10.18;;;;;;;;;;5075983;28;20024;-69
2021/09/30 07:13:21;;;;;;;14.57;9.35;;;;;;;;;;5074980;28;20036;-69
2021/09/30 07:15:48;;;;;;;18.15;8.75;;;;;;;;;;5070477;28;20051;-69
2021/09/30 07:18:18;;;;;;;19.08;9.52;;;;;;;;;;5086281;28;20032;-69
2021/09/30 07:20:48;;;;;;;14.10;8.20;;;;;;;;;;5087303;28;20051;-69
2021/09/30 07:23:13;;;;;;;15.88;8.65;;;;;;;;;;5090817;28;20028;-69
2021/09/30 07:25:39;;;;;;;14.43;8.95;;;;;;;;;;5080018;28;20039;-69
2021/09/30 07:28:05;;;;;;;17.75;9.00;;;;;;;;;;5077504;28;20078;-69
2021/09/30 07:30:32;;;;;;;19.88;9.85;;;;;;;;;;5070621;28;20468;-66
2021/09/30 07:32:58;;;;;;;19.40;9.02;;;;;;;;;;5053459;28;20032;-66
2021/09/30 07:35:25;;;;;;;15.75;8.77;;;;;;;;;;5079581;28;20036;-66
2021/09/30 07:37:52;;;;;;;17.35;8.93;;;;;;;;;;5079189;28;20502;-67
2021/09/30 07:40:18;;;;;;;18.40;9.73;;;;;;;;;;5083328;28;20036;-66
2021/09/30 07:42:44;;;;;;;15.63;8.57;;;;;;;;;;5070241;28;20027;-66
2021/09/30 07:45:10;;;;;;;19.55;9.35;;;;;;;;;;5073201;28;20028;-66
2021/09/30 07:47:36;;;;;;;19.35;9.32;;;;;;;;;;5089691;28;20468;-66
2021/09/30 07:50:03;;;;;;;16.55;8.93;;;;;;;;;;5079340;28;20031;-66
2021/09/30 07:52:29;;;;;;;18.80;8.57;;;;;;;;;;5090534;28;20103;-66
2021/09/30 07:54:55;;;;;;;16.30;9.30;;;;;;;;;;5083263;28;20174;-66
2021/09/30 07:57:21;;;;;;;18.02;9.32;;;;;;;;;;5080526;28;20034;-66
2021/09/30 07:59:46;;;;;;;16.45;9.13;;;;;;;;;;5084507;28;20028;-67
2021/09/30 08:02:12;;;;;;;15.35;8.80;;;;;;;;;;5074336;28;20364;-67
2021/09/30 08:04:38;;;;;;;18.88;8.68;;;;;;;;;;5063833;28;20048;-66
2021/09/30 08:07:06;;;;;;;13.75;8.52;;;;;;;;;;5055063;28;20116;-66
2021/09/30 08:09:32;;;;;;;15.15;8.77;;;;;;;;;;5054002;28;20025;-66
2021/09/30 08:11:58;;;;;;;14.13;9.25;;;;;;;;;;5057263;28;20441;-66
2021/09/30 08:14:23;;;;;;;16.85;9.05;;;;;;;;;;5073849;28;20024;-67
2021/09/30 08:16:49;;;;;;;16.42;9.90;;;;;;;;;;5073615;28;20024;-66
2021/09/30 08:19:15;;;;;;;18.35;9.30;;;;;;;;;;5070301;28;20093;-66
2021/09/30 08:21:44;;;;;;;19.65;9.40;;;;;;;;;;5052297;28;20086;-66
2021/09/30 08:24:13;;;;;;;20.38;9.20;;;;;;;;;;5053479;28;20059;-66
2021/09/30 08:26:39;;;;;;;15.05;9.50;;;;;;;;;;5052893;28;20041;-67
2021/09/30 08:29:04;;;;;;;21.80;8.85;;;;;;;;;;5052905;28;20098;-66
2021/09/30 08:31:30;;;;;;;18.75;9.20;;;;;;;;;;5053159;28;20484;-66
2021/09/30 08:33:58;;;;;;;17.10;9.40;;;;;;;;;;5053246;28;20029;-66
2021/09/30 08:36:25;;;;;;;14.07;9.20;;;;;;;;;;5052983;28;20025;-66
2021/09/30 08:38:51;;;;;;;14.30;8.80;;;;;;;;;;5053592;28;20027;-66
2021/09/30 08:41:18;;;;;;;16.50;9.52;;;;;;;;;;5052600;28;20029;-66
2021/09/30 08:43:43;;;;;;;15.75;9.73;;;;;;;;;;5052731;28;20051;-67
2021/09/30 08:46:10;;;;;;;14.77;9.38;;;;;;;;;;5052318;28;20472;-67
2021/09/30 08:48:36;;;;;;;17.17;9.57;;;;;;;;;;5052698;28;20040;-67
2021/09/30 08:51:02;;;;;;;16.38;8.98;;;;;;;;;;5052750;28;20021;-67
2021/09/30 08:53:28;;;;;;;19.33;9.45;;;;;;;;;;5052324;28;20442;-67
2021/09/30 08:55:56;;;;;;;21.40;10.60;;;;;;;;;;5052345;28;20107;-66
2021/09/30 08:58:22;;;;;;;16.08;9.63;;;;;;;;;;5052937;28;20021;-66
2021/09/30 09:00:52;;;;;;;25.05;9.77;;;;;;;;;;5052690;28;20072;-66
2021/09/30 09:03:34;;;;;;;17.83;9.57;;;;;;;;;;5056256;28;20041;-67
2021/09/30 09:06:00;;;;;;;16.65;10.18;;;;;;;;;;5072710;28;20024;-67
2021/09/30 09:08:26;;;;;;;15.98;9.57;;;;;;;;;;5072676;28;20091;-66
2021/09/30 09:10:55;;;;;;;20.35;9.77;;;;;;;;;;5072482;28;20472;-67
2021/09/30 09:13:24;;;;;;;21.20;9.77;;;;;;;;;;5072598;28;20503;-67
2021/09/30 09:15:54;;;;;;;21.15;9.50;;;;;;;;;;5072491;28;20024;-66
2021/09/30 09:18:39;;;;;;;15.25;9.93;;;;;;;;;;5071961;28;20046;-66
2021/09/30 09:21:15;;;;;;;18.73;9.90;;;;;;;;;;5053935;28;20024;-67
2021/09/30 09:23:52;;;;;;;18.65;9.85;;;;;;;;;;5072629;28;20020;-67
2021/09/30 09:26:32;;;;;;;23.50;11.75;;;;;;;;;;5073066;28;20044;-66
2021/09/30 09:29:13;;;;;;;21.73;10.93;;;;;;;;;;5072774;28;20480;-66
2021/09/30 09:31:46;;;;;;;23.17;10.05;;;;;;;;;;5072394;28;20039;-66
2021/09/30 09:34:29;;;;;;;19.67;10.60;;;;;;;;;;5066004;28;20525;-66
2021/09/30 09:37:40;;;;;;;20.35;10.70;;;;;;;;;;5071799;28;20421;-66
2021/09/30 09:40:17;;;;;;;17.73;10.77;;;;;;;;;;5068841;28;20051;-66
2021/09/30 09:42:42;;;;;;;22.67;10.82;;;;;;;;;;5071948;28;20047;-66
2021/09/30 09:45:11;;;;;;;21.33;12.40;;;;;;;;;;5071990;28;20024;-66
2021/09/30 09:47:38;;;;;;;19.60;12.43;;;;;;;;;;5071773;28;20111;-67
2021/09/30 09:50:10;;;;;;;19.20;13.20;;;;;;;;;;5071866;28;20384;-67
2021/09/30 09:52:50;;;;;;;10.02;5.57;;;;;;;;;;5072050;28;20434;-68
2021/09/30 09:55:24;;;;;;;8.35;4.40;;;;;;;;;;5071615;28;20087;-68
2021/09/30 09:58:10;;;;;;;5.28;2.80;;;;;;;;;;5071306;28;20528;-68
2021/09/30 10:00:38;;;;;;;6.07;2.50;;;;;;;;;;5071755;28;20042;-68
2021/09/30 10:03:17;;;;;;;6.20;2.70;;;;;;;;;;5071093;28;20464;-68
2021/09/30 10:05:44;;;;;;;6.68;2.67;;;;;;;;;;5071369;28;20078;-67
2021/09/30 10:08:10;;;;;;;5.30;2.45;;;;;;;;;;5071577;28;20033;-67
2021/09/30 10:10:37;;;;;;;5.15;2.15;;;;;;;;;;5071767;28;20069;-67
2021/09/30 10:13:04;;;;;;;3.97;2.00;;;;;;;;;;5070946;28;20059;-67
2021/09/30 10:15:31;;;;;;;4.25;1.85;;;;;;;;;;5071529;28;20064;-67
2021/09/30 10:17:57;;;;;;;3.50;1.95;;;;;;;;;;5070986;28;20028;-67
2021/09/30 10:20:22;;;;;;;4.28;1.88;;;;;;;;;;5053158;28;20552;-67
2021/09/30 10:22:55;;;;;;;3.15;2.20;;;;;;;;;;5071249;28;20028;-67
2021/09/30 10:25:21;;;;;;;3.15;1.80;;;;;;;;;;5071316;28;20024;-67
2021/09/30 10:27:55;;;;;;;5.32;2.47;;;;;;;;;;5070702;28;20543;-67
2021/09/30 10:30:32;;;;;;;3.75;1.60;;;;;;;;;;5071606;28;20020;-67
2021/09/30 10:33:00;;;;;;;5.70;1.83;;;;;;;;;;5057349;28;20032;-67
2021/09/30 10:35:34;;;;;;;4.20;1.52;;;;;;;;;;5074112;28;20040;-67
2021/09/30 10:38:18;;;;;;;6.22;2.65;;;;;;;;;;5064392;28;20222;-67
2021/09/30 10:41:01;;;;;;;;;;;;;;;;;;5071736;28;20028;-67
2021/09/30 10:43:29;;;;;;;2.37;1.20;;;;;;;;;;5067134;28;19916;-67
2021/09/30 10:45:55;;;;;;;2.75;1.35;;;;;;;;;;5071232;28;20028;-67
2021/09/30 10:48:24;;;;;;;3.88;1.40;;;;;;;;;;5071611;28;20369;-67
2021/09/30 10:50:53;;;;;;;3.70;1.40;;;;;;;;;;5071228;28;20634;-67
2021/09/30 10:53:19;;;;;;;4.68;1.33;;;;;;;;;;5053341;28;20356;-67
2021/09/30 10:55:45;;;;;;;2.88;1.30;;;;;;;;;;5071280;28;20028;-67
2021/09/30 10:58:23;;;;;;;3.95;1.30;;;;;;;;;;5071421;28;20481;-67
2021/09/30 11:00:51;;;;;;;2.67;1.38;;;;;;;;;;5070931;28;20027;-67
2021/09/30 11:03:20;;;;;;;3.80;1.20;;;;;;;;;;5071190;28;20048;-67
2021/09/30 11:06:06;;;;;;;4.00;1.30;;;;;;;;;;5070937;28;20067;-67
2021/09/30 11:08:36;;;;;;;3.35;1.20;;;;;;;;;;5070739;28;20444;-67
2021/09/30 11:11:01;;;;;;;3.40;1.10;;;;;;;;;;5071119;28;20021;-67
2021/09/30 11:13:30;;;;;;;4.45;1.40;;;;;;;;;;5071145;28;20027;-67
2021/09/30 11:15:58;;;;;;;4.40;1.27;;;;;;;;;;5070937;28;20016;-67
2021/09/30 11:18:50;;;;;;;2.85;0.98;;;;;;;;;;5084631;28;20039;-67
2021/09/30 11:21:30;;;;;;;6.55;1.17;;;;;;;;;;5071827;28;20452;-67
2021/09/30 11:24:11;;;;;;;1.98;1.10;;;;;;;;;;5089809;28;20073;-67
2021/09/30 11:26:48;;;;;;;2.90;1.13;;;;;;;;;;5090719;28;20028;-67
2021/09/30 11:29:29;;;;;;;2.55;1.20;;;;;;;;;;5076537;28;20541;-67
2021/09/30 11:31:54;;;;;;;3.70;1.50;;;;;;;;;;5070434;28;20028;-67
2021/09/30 11:34:31;;;;;;;3.17;1.45;;;;;;;;;;5070426;28;20032;-67
2021/09/30 11:37:11;;;;;;;5.15;1.40;;;;;;;;;;5087541;28;20028;-67
2021/09/30 11:39:37;;;;;;;4.38;1.40;;;;;;;;;;5090613;28;20476;-67
2021/09/30 11:42:03;;;;;;;2.28;1.38;;;;;;;;;;5092350;28;20043;-67
2021/09/30 11:44:29;;;;;;;5.15;1.67;;;;;;;;;;5094647;28;20096;-67
2021/09/30 11:46:57;;;;;;;6.05;1.70;;;;;;;;;;5094360;28;20032;-68
2021/09/30 11:49:23;;;;;;;3.85;1.27;;;;;;;;;;5077079;28;20162;-67
2021/09/30 11:51:53;;;;;;;3.65;1.70;;;;;;;;;;5074170;28;20025;-68
2021/09/30 11:54:21;;;;;;;5.70;1.52;;;;;;;;;;5074081;28;20025;-67
2021/09/30 11:56:55;;;;;;;5.03;1.60;;;;;;;;;;5072678;28;20045;-67
2021/09/30 11:59:23;;;;;;;5.50;2.35;;;;;;;;;;5074209;28;20048;-67
2021/09/30 12:01:54;;;;;;;5.65;1.60;;;;;;;;;;5073859;28;20035;-67
2021/09/30 12:04:30;;;;;;;4.28;1.92;;;;;;;;;;5074040;28;20079;-67
2021/09/30 12:06:56;;;;;;;6.35;1.88;;;;;;;;;;5082789;28;20024;-67
2021/09/30 12:09:22;;;;;;;2.60;1.20;;;;;;;;;;5073777;28;20037;-67
2021/09/30 12:11:53;;;;;;;4.18;1.30;;;;;;;;;;5073890;28;20027;-67
2021/09/30 12:14:20;;;;;;;3.55;1.30;;;;;;;;;;5073940;28;20048;-67
2021/09/30 12:16:57;;;;;;;4.47;1.50;;;;;;;;;;5073835;28;20051;-67
2021/09/30 12:19:30;;;;;;;3.20;1.30;;;;;;;;;;5065679;28;20337;-67
2021/09/30 12:21:56;;;;;;;4.18;1.50;;;;;;;;;;5073431;28;20029;-67
2021/09/30 12:24:25;;;;;;;3.10;1.15;;;;;;;;;;5073813;28;20480;-67
2021/09/30 12:26:51;;;;;;;4.35;1.50;;;;;;;;;;5055855;28;20024;-67
2021/09/30 12:29:18;;;;;;;3.67;1.27;;;;;;;;;;5073685;28;20074;-67
2021/09/30 12:31:45;;;;;;;1.70;1.17;;;;;;;;;;5073580;28;20025;-67
2021/09/30 12:34:32;;;;;;;1.73;1.10;;;;;;;;;;5069792;28;20444;-66
2021/09/30 12:36:57;;;;;;;2.30;1.25;;;;;;;;;;5073476;28;20113;-66
2021/09/30 12:39:27;;;;;;;3.28;1.15;;;;;;;;;;5081780;28;20027;-67
2021/09/30 12:41:54;;;;;;;2.13;1.25;;;;;;;;;;5093377;28;20059;-67
2021/09/30 12:44:21;;;;;;;1.50;1.00;;;;;;;;;;5093751;28;20490;-67
2021/09/30 12:46:51;;;;;;;2.35;1.00;;;;;;;;;;5093490;28;20055;-67
2021/09/30 12:49:18;;;;;;;4.25;1.00;;;;;;;;;;5093517;28;20058;-67
2021/09/30 12:51:44;;;;;;;3.97;1.42;;;;;;;;;;5077315;28;20031;-67
2021/09/30 12:54:10;;;;;;;1.30;1.02;;;;;;;;;;5072087;28;20036;-67
2021/09/30 12:56:36;;;;;;;2.45;1.10;;;;;;;;;;5073322;28;20472;-67
2021/09/30 12:59:14;;;;;;;1.90;1.10;;;;;;;;;;5086228;28;20032;-67
2021/09/30 13:01:41;;;;;;;2.28;1.00;;;;;;;;;;5093220;28;20069;-66
2021/09/30 13:04:22;;;;;;;2.47;0.80;;;;;;;;;;5092745;28;20071;-67
2021/09/30 13:06:50;;;;;;;1.42;0.70;;;;;;;;;;5081585;28;20056;-67
2021/09/30 13:09:25;;;;;;;3.67;0.85;;;;;;;;;;5076569;28;20028;-67
2021/09/30 13:11:58;;;;;;;3.90;0.88;;;;;;;;;;5074012;28;20653;-67
2021/09/30 13:14:35;;;;;;;;;;;;;;;;;;5076431;28;20024;-67
2021/09/30 13:17:06;;;;;;;3.10;0.80;;;;;;;;;;5073766;28;19963;-67
2021/09/30 13:19:53;;;;;;;3.40;0.90;;;;;;;;;;5072520;28;20504;-67
2021/09/30 13:22:23;;;;;;;4.35;0.80;;;;;;;;;;5063440;28;20070;-67
2021/09/30 13:24:52;;;;;;;1.45;0.75;;;;;;;;;;5092735;28;20372;-67
2021/09/30 13:27:29;;;;;;;2.88;0.90;;;;;;;;;;5092689;28;20035;-67
2021/09/30 13:29:56;;;;;;;3.90;1.10;;;;;;;;;;5086930;28;20016;-67
2021/09/30 13:32:25;;;;;;;2.72;0.95;;;;;;;;;;5075943;28;20218;-67
2021/09/30 13:34:51;;;;;;;1.52;0.90;;;;;;;;;;5072184;28;20543;-67
2021/09/30 13:37:16;;;;;;;3.63;0.95;;;;;;;;;;5071511;28;20119;-67
2021/09/30 13:39:42;;;;;;;3.80;1.05;;;;;;;;;;5072107;28;20024;-67
2021/09/30 13:42:08;;;;;;;2.90;1.48;;;;;;;;;;5060360;28;20093;-67
2021/09/30 13:44:34;;;;;;;2.97;0.80;;;;;;;;;;5091530;28;20028;-66
2021/09/30 13:47:00;;;;;;;3.63;1.77;;;;;;;;;;5062034;28;20076;-68
2021/09/30 13:49:25;;;;;;;1.30;0.75;;;;;;;;;;5080850;28;20039;-67
2021/09/30 13:51:50;;;;;;;1.73;0.80;;;;;;;;;;5082606;28;20024;-68
2021/09/30 13:54:16;;;;;;;1.80;0.80;;;;;;;;;;5090989;28;20031;-68
2021/09/30 13:56:41;;;;;;;1.40;0.90;;;;;;;;;;5087054;28;20028;-68
2021/09/30 13:59:07;;;;;;;2.70;1.08;;;;;;;;;;5071871;28;20455;-67
2021/09/30 14:01:32;;;;;;;3.60;1.10;;;;;;;;;;5072641;28;20485;-68
2021/09/30 14:03:58;;;;;;;2.90;1.20;;;;;;;;;;5071353;28;20515;-68
2021/09/30 14:06:24;;;;;;;3.40;1.17;;;;;;;;;;5050978;28;20465;-68
2021/09/30 14:08:52;;;;;;;3.45;1.00;;;;;;;;;;5051871;28;20032;-68
2021/09/30 14:11:22;;;;;;;6.00;1.45;;;;;;;;;;5051734;28;20024;-67
2021/09/30 14:13:47;;;;;;;3.47;1.13;;;;;;;;;;5051790;28;20507;-68
2021/09/30 14:16:13;;;;;;;3.10;1.25;;;;;;;;;;5070398;28;20024;-67
2021/09/30 14:18:38;;;;;;;2.60;1.00;;;;;;;;;;5085662;28;20024;-68
2021/09/30 14:21:05;;;;;;;2.78;1.10;;;;;;;;;;5091568;28;20051;-67
2021/09/30 14:23:31;;;;;;;1.45;0.90;;;;;;;;;;5091538;28;20103;-67
2021/09/30 14:25:58;;;;;;;3.03;1.25;;;;;;;;;;5089871;28;20066;-67
2021/09/30 14:28:24;;;;;;;3.08;1.42;;;;;;;;;;5088911;28;20028;-68
2021/09/30 14:30:50;;;;;;;2.20;1.10;;;;;;;;;;5082794;28;20021;-67
2021/09/30 14:33:16;;;;;;;2.42;1.00;;;;;;;;;;5070723;28;20031;-67
2021/09/30 14:35:41;;;;;;;2.88;1.33;;;;;;;;;;5071275;28;20496;-68
2021/09/30 14:38:08;;;;;;;5.38;1.40;;;;;;;;;;5069322;28;20447;-68
2021/09/30 14:40:34;;;;;;;3.38;1.30;;;;;;;;;;5060918;28;20503;-68
2021/09/30 14:43:01;;;;;;;2.53;1.23;;;;;;;;;;5052401;28;20031;-68
2021/09/30 14:45:27;;;;;;;4.07;1.33;;;;;;;;;;5073163;28;20514;-68
2021/09/30 14:47:52;;;;;;;4.70;1.40;;;;;;;;;;5071896;28;20024;-68
2021/09/30 14:50:18;;;;;;;4.28;1.48;;;;;;;;;;5071052;28;20020;-68
2021/09/30 14:52:43;;;;;;;3.05;1.42;;;;;;;;;;5066752;28;20021;-68
2021/09/30 14:55:09;;;;;;;4.22;1.50;;;;;;;;;;5081194;28;20151;-68
2021/09/30 14:57:35;;;;;;;2.50;1.25;;;;;;;;;;5073683;28;20479;-68
2021/09/30 15:00:01;;;;;;;3.05;1.30;;;;;;;;;;5071534;28;20498;-68
2021/09/30 15:02:27;;;;;;;4.47;1.48;;;;;;;;;;5082832;28;20116;-68
2021/09/30 15:04:53;;;;;;;3.28;1.67;;;;;;;;;;5081761;28;20036;-68
2021/09/30 15:07:22;;;;;;;3.47;1.40;;;;;;;;;;5076910;28;20033;-68
2021/09/30 15:09:48;;;;;;;3.72;1.80;;;;;;;;;;5072602;28;20027;-68
2021/09/30 15:12:14;;;;;;;4.30;1.75;;;;;;;;;;5075863;28;20024;-68
2021/09/30 15:14:39;;;;;;;5.05;1.92;;;;;;;;;;5077987;28;20069;-68
2021/09/30 15:17:21;;;;;;;3.63;1.50;;;;;;;;;;5065032;28;20093;-68
2021/09/30 15:19:52;;;;;;;2.50;1.50;;;;;;;;;;5055479;28;20511;-68
2021/09/30 15:22:18;;;;;;;2.60;1.50;;;;;;;;;;5073549;28;20086;-68
2021/09/30 15:24:43;;;;;;;5.25;1.60;;;;;;;;;;5073713;28;20465;-68
2021/09/30 15:27:09;;;;;;;3.63;1.60;;;;;;;;;;5074524;28;20216;-68
2021/09/30 15:29:36;;;;;;;5.63;1.58;;;;;;;;;;5074763;28;20392;-68
2021/09/30 15:32:02;;;;;;;4.38;1.50;;;;;;;;;;5074422;28;20028;-68
2021/09/30 15:34:28;;;;;;;3.97;1.50;;;;;;;;;;5074280;28;20027;-68
2021/09/30 15:36:54;;;;;;;5.15;1.77;;;;;;;;;;5074520;28;20032;-68
2021/09/30 15:39:19;;;;;;;2.70;1.40;;;;;;;;;;5074578;28;20025;-68
2021/09/30 15:41:46;;;;;;;7.10;1.60;;;;;;;;;;5074443;28;20025;-68
2021/09/30 15:44:13;;;;;;;8.25;1.50;;;;;;;;;;5074329;28;20024;-68
2021/09/30 15:46:39;;;;;;;4.05;1.38;;;;;;;;;;5077944;28;20028;-68
2021/09/30 15:49:04;;;;;;;3.83;1.20;;;;;;;;;;5079050;28;20559;-68
2021/09/30 15:51:30;;;;;;;7.57;1.65;;;;;;;;;;5087006;28;20058;-68
2021/09/30 15:53:55;;;;;;;4.22;1.45;;;;;;;;;;5093914;28;20364;-68
2021/09/30 15:56:21;;;;;;;5.88;1.50;;;;;;;;;;5084483;28;20025;-68
2021/09/30 15:58:47;;;;;;;3.97;1.40;;;;;;;;;;5075290;28;20029;-68
2021/09/30 16:01:13;;;;;;;8.77;1.48;;;;;;;;;;5073946;28;20061;-69
2021/09/30 16:03:39;;;;;;;5.25;1.20;;;;;;;;;;5073796;28;20072;-68
2021/09/30 16:06:04;;;;;;;7.63;1.40;;;;;;;;;;5073736;28;20499;-68
2021/09/30 16:08:30;;;;;;;9.02;1.90;;;;;;;;;;5073884;28;20029;-68
2021/09/30 16:10:56;;;;;;;6.90;1.92;;;;;;;;;;5073901;28;20369;-68
2021/09/30 16:13:22;;;;;;;6.20;1.88;;;;;;;;;;5073563;28;20094;-68
2021/09/30 16:15:47;;;;;;;7.05;1.42;;;;;;;;;;5073782;28;20071;-68
2021/09/30 16:18:13;;;;;;;7.75;1.42;;;;;;;;;;5083692;28;20024;-68
2021/09/30 16:20:38;;;;;;;5.18;1.48;;;;;;;;;;5075136;28;20020;-68
2021/09/30 16:23:04;;;;;;;6.63;1.52;;;;;;;;;;5074553;28;20020;-68
2021/09/30 16:25:29;;;;;;;10.20;1.67;;;;;;;;;;5073979;28;20431;-68
2021/09/30 16:27:55;;;;;;;8.38;1.70;;;;;;;;;;5083786;28;20034;-68
2021/09/30 16:30:21;;;;;;;10.23;2.10;;;;;;;;;;5094146;28;20124;-68
2021/09/30 16:32:47;;;;;;;8.85;2.10;;;;;;;;;;5075549;28;20116;-68
2021/09/30 16:35:13;;;;;;;9.30;1.80;;;;;;;;;;5091792;28;20398;-68
2021/09/30 16:37:39;;;;;;;6.38;1.45;;;;;;;;;;5074016;28;20020;-68
2021/09/30 16:40:06;;;;;;;5.78;1.50;;;;;;;;;;5075158;28;20519;-68
2021/09/30 16:42:33;;;;;;;8.93;1.90;;;;;;;;;;5056240;28;20070;-68
2021/09/30 16:45:01;;;;;;;7.75;1.55;;;;;;;;;;5075339;28;20067;-68
2021/09/30 16:47:27;;;;;;;10.20;2.22;;;;;;;;;;5074858;28;20529;-68
2021/09/30 16:49:52;;;;;;;7.82;2.53;;;;;;;;;;5094525;28;20054;-68
2021/09/30 16:52:17;;;;;;;6.13;1.70;;;;;;;;;;5089894;28;20036;-68
2021/09/30 16:54:43;;;;;;;4.22;1.42;;;;;;;;;;5085697;28;20066;-68
2021/09/30 16:57:08;;;;;;;7.85;1.98;;;;;;;;;;5072388;28;20108;-68
2021/09/30 16:59:34;;;;;;;6.95;1.73;;;;;;;;;;5072924;28;20024;-68
2021/09/30 17:01:59;;;;;;;7.03;1.70;;;;;;;;;;5073288;28;20032;-68
2021/09/30 17:04:26;;;;;;;11.65;1.98;;;;;;;;;;5092796;28;20055;-68
2021/09/30 17:06:51;;;;;;;6.43;1.52;;;;;;;;;;5093109;28;20480;-68
2021/09/30 17:09:17;;;;;;;8.32;1.65;;;;;;;;;;5058272;28;20024;-68
2021/09/30 17:11:42;;;;;;;5.00;1.65;;;;;;;;;;5072496;28;20024;-69
2021/09/30 17:14:08;;;;;;;6.93;1.70;;;;;;;;;;5072227;28;20032;-68
2021/09/30 17:16:33;;;;;;;9.70;2.38;;;;;;;;;;5072664;28;20032;-68
2021/09/30 17:18:59;;;;;;;5.57;1.67;;;;;;;;;;5091005;28;20028;-68
2021/09/30 17:21:24;;;;;;;5.55;1.52;;;;;;;;;;5092533;28;20053;-68
2021/09/30 17:23:51;;;;;;;7.45;1.75;;;;;;;;;;5092831;28;20098;-68
2021/09/30 17:26:17;;;;;;;8.48;1.65;;;;;;;;;;5092571;28;20024;-68
2021/09/30 17:28:43;;;;;;;6.13;1.90;;;;;;;;;;5092702;28;20081;-68
2021/09/30 17:31:09;;;;;;;6.93;1.70;;;;;;;;;;5074021;28;20016;-68
2021/09/30 17:33:35;;;;;;;4.55;1.65;;;;;;;;;;5072169;28;20365;-68
2021/09/30 17:36:01;;;;;;;8.38;2.17;;;;;;;;;;5067584;28;20068;-68
2021/09/30 17:38:27;;;;;;;8.52;2.00;;;;;;;;;;5083321;28;20055;-68
2021/09/30 17:40:52;;;;;;;5.65;1.75;;;;;;;;;;5083743;28;20039;-68
2021/09/30 17:43:17;;;;;;;8.07;1.70;;;;;;;;;;5089804;28;20430;-68
2021/09/30 17:45:43;;;;;;;8.43;1.67;;;;;;;;;;5084992;28;20103;-68